Terminal Aerodrome Forecast
Issued by NWS

Home | Current Version | Previous Version | Text Only | Print | Product List | Glossary Off
Versions: 1 2 3 4 5 6 7 8 9 10 11 12 13 14 15 16 17 18 19

000
FTUS43 KMPX 290520
TAFRNH
TAF
KRNH 290520Z 2906/3006 17006KT P6SM SCT100 OVC250
     FM291000 21006KT P6SM -SHRA OVC060
     FM291200 27007KT P6SM OVC020
     FM291800 31010G18KT 6SM -SHRA BR VCTS OVC018CB
      TEMPO 2918/2921 5SM -TSRA
     FM292100 34015G20KT P6SM VCSH BKN025
     FM300000 35015KT P6SM FEW030=

USA.gov is the U.S. government's official web portal to all federal, state and local government web resources and services.